createdAt,value
2022-09-05T00:01:55.143Z,18.59
2022-09-05T00:04:43.434Z,18.54
2022-09-05T00:07:58.426Z,18.48
2022-09-05T00:10:12.453Z,18.46
2022-09-05T00:12:40.332Z,18.45
2022-09-05T00:15:26.312Z,18.39
2022-09-05T00:18:44.086Z,18.35
2022-09-05T00:24:27.645Z,18.35
2022-09-05T00:24:34.104Z,18.36
2022-09-05T00:27:07.382Z,18.33
2022-09-05T00:31:07.045Z,18.33
2022-09-05T00:33:26.364Z,18.28
2022-09-05T00:36:23.212Z,18.29
2022-09-05T00:39:00.742Z,18.22
2022-09-05T00:41:28.972Z,18.20
2022-09-05T00:44:03.040Z,18.14
2022-09-05T00:46:34.353Z,18.02
2022-09-05T00:49:22.612Z,18.06
2022-09-05T00:51:58.372Z,18.02
2022-09-05T00:55:02.581Z,18.04
2022-09-05T00:58:05.853Z,18.06
2022-09-05T01:00:53.074Z,18.05
2022-09-05T01:03:26.377Z,18.03
2022-09-05T01:06:14.053Z,18.01
2022-09-05T01:08:56.374Z,18.01
2022-09-05T01:11:56.492Z,17.98
2022-09-05T01:14:48.973Z,18.01
2022-09-05T01:18:02.394Z,18.04
2022-09-05T01:20:44.693Z,18.06
2022-09-05T01:23:23.853Z,18.11
2022-09-05T01:26:02.761Z,18.13
2022-09-05T01:29:15.589Z,18.17
2022-09-05T01:31:57.254Z,18.12
2022-09-05T01:34:43.316Z,18.18
2022-09-05T01:37:37.693Z,18.12
2022-09-05T01:40:24.287Z,18.06
2022-09-05T01:42:54.314Z,18.03
2022-09-05T01:45:38.708Z,18.03
2022-09-05T01:48:30.540Z,18.00
2022-09-05T01:51:28.285Z,17.98
2022-09-05T01:54:23.675Z,17.97
2022-09-05T01:57:03.072Z,17.95
2022-09-05T01:59:48.893Z,17.88
2022-09-05T02:02:50.699Z,17.87
2022-09-05T02:05:52.415Z,17.86
2022-09-05T02:08:41.818Z,17.81
2022-09-05T02:11:12.996Z,17.81
2022-09-05T02:13:50.413Z,17.82
2022-09-05T02:16:42.375Z,17.81
2022-09-05T02:19:09.476Z,17.79
2022-09-05T02:21:56.115Z,17.77
2022-09-05T02:24:27.736Z,17.81
2022-09-05T02:26:54.672Z,17.81
2022-09-05T02:29:31.233Z,17.78
2022-09-05T02:32:15.472Z,17.75
2022-09-05T02:35:03.581Z,17.75
2022-09-05T02:39:07.522Z,17.73
2022-09-05T02:45:08.797Z,17.63
2022-09-05T02:45:18.878Z,17.60
2022-09-05T02:47:26.533Z,17.59
2022-09-05T02:53:35.105Z,17.58
2022-09-05T02:57:32.962Z,17.58
2022-09-05T02:57:35.754Z,17.57
2022-09-05T02:59:16.153Z,17.56
2022-09-05T03:02:27.121Z,17.60
2022-09-05T03:05:18.594Z,17.62
2022-09-05T03:08:10.835Z,17.64
2022-09-05T03:11:02.913Z,17.64
2022-09-05T03:14:18.698Z,17.67
2022-09-05T03:17:24.075Z,17.65
2022-09-05T03:20:12.214Z,17.59
2022-09-05T03:23:11.776Z,17.62
2022-09-05T03:26:05.852Z,17.63
2022-09-05T03:29:30.232Z,17.62
2022-09-05T03:32:31.692Z,17.61
2022-09-05T03:35:20.321Z,17.62
2022-09-05T03:38:08.841Z,17.55
2022-09-05T03:40:50.453Z,17.55
2022-09-05T03:43:46.001Z,17.51
2022-09-05T03:46:54.053Z,17.50
2022-09-05T03:52:59.694Z,17.45
2022-09-05T03:57:11.362Z,17.35
2022-09-05T03:57:13.504Z,17.38
2022-09-05T03:59:26.613Z,17.32
2022-09-05T04:05:41.939Z,17.30
2022-09-05T04:08:18.930Z,17.22
2022-09-05T04:08:34.328Z,17.14
2022-09-05T04:11:05.847Z,17.15
2022-09-05T04:13:45.869Z,17.11
2022-09-05T04:16:22.560Z,17.10
2022-09-05T04:18:55.150Z,17.10
2022-09-05T04:21:32.728Z,17.05
2022-09-05T04:24:07.779Z,17.07
2022-09-05T04:27:27.712Z,17.07
2022-09-05T04:30:38.845Z,17.00
2022-09-05T04:33:33.511Z,17.02
2022-09-05T04:36:17.878Z,17.03
2022-09-05T04:38:46.245Z,17.03
2022-09-05T04:41:18.051Z,17.02
2022-09-05T04:43:53.409Z,17.05
2022-09-05T04:46:29.930Z,17.09
2022-09-05T04:48:56.858Z,17.14
2022-09-05T04:52:00.158Z,17.16
2022-09-05T04:55:01.350Z,17.12
2022-09-05T04:57:50.742Z,17.28
2022-09-05T05:06:05.242Z,17.27
2022-09-05T05:06:08.720Z,17.33
2022-09-05T05:06:45.387Z,17.35
2022-09-05T05:09:22.115Z,17.34
2022-09-05T05:17:53.719Z,17.44
2022-09-05T05:18:10.385Z,17.55
2022-09-05T05:18:39.606Z,17.64
2022-09-05T05:20:55.901Z,17.74
2022-09-05T05:23:34.580Z,17.81
2022-09-05T05:26:04.491Z,17.89
2022-09-05T05:29:00.801Z,17.93
2022-09-05T05:31:31.851Z,17.99
2022-09-05T05:34:06.138Z,18.09
2022-09-05T05:37:08.934Z,18.13
2022-09-05T05:39:44.706Z,18.21
2022-09-05T05:42:21.515Z,18.22
2022-09-05T05:44:58.022Z,18.38
2022-09-05T05:47:34.804Z,18.45
2022-09-05T05:50:11.771Z,18.58
2022-09-05T05:53:33.449Z,18.61
2022-09-05T05:56:44.045Z,18.73
2022-09-05T05:59:25.053Z,18.86
2022-09-05T06:02:29.695Z,18.98
2022-09-05T06:05:18.105Z,19.00
2022-09-05T06:09:57.513Z,19.06
2022-09-05T06:14:56.533Z,19.03
2022-09-05T06:14:57.886Z,19.10
2022-09-05T06:17:28.030Z,19.24
2022-09-05T06:22:06.275Z,19.31
2022-09-05T06:23:39.517Z,19.44
2022-09-05T06:26:22.297Z,19.55
2022-09-05T06:29:10.625Z,19.44
2022-09-05T06:31:59.102Z,19.62
2022-09-05T06:35:04.506Z,19.73
2022-09-05T06:37:53.218Z,19.86
2022-09-05T06:40:23.152Z,19.95
2022-09-05T06:42:58.959Z,20.03
2022-09-05T06:45:58.502Z,20.13
2022-09-05T06:49:30.643Z,20.27
2022-09-05T06:52:13.090Z,20.38
2022-09-05T06:55:06.475Z,20.47
2022-09-05T06:58:18.256Z,20.53
2022-09-05T07:00:50.977Z,20.60
2022-09-05T07:03:26.888Z,20.72
2022-09-05T07:05:56.845Z,20.77
2022-09-05T07:08:44.634Z,20.85
2022-09-05T07:11:36.856Z,20.87
2022-09-05T07:14:14.169Z,21.04
2022-09-05T07:16:44.431Z,21.04
2022-09-05T07:19:27.710Z,21.12
2022-09-05T07:22:47.860Z,21.21
2022-09-05T07:25:37.218Z,21.29
2022-09-05T07:28:27.032Z,21.40
2022-09-05T07:31:03.173Z,21.47
2022-09-05T07:33:31.733Z,21.56
2022-09-05T07:36:10.165Z,21.66
2022-09-05T07:38:54.905Z,21.72
2022-09-05T07:41:28.595Z,21.81
2022-09-05T07:44:03.384Z,21.83
2022-09-05T07:46:39.044Z,21.89
2022-09-05T07:49:11.346Z,21.92
2022-09-05T07:56:52.289Z,22.05
2022-09-05T07:56:56.046Z,21.97
2022-09-05T07:57:50.900Z,22.01
2022-09-05T08:00:26.786Z,22.15
2022-09-05T08:02:59.536Z,22.17
2022-09-05T08:05:37.526Z,22.23
2022-09-05T08:08:10.377Z,22.35
2022-09-05T08:11:22.018Z,22.43
2022-09-05T08:13:46.223Z,22.50
2022-09-05T08:16:19.466Z,22.65
2022-09-05T08:19:01.726Z,22.74
2022-09-05T08:21:43.945Z,22.84
2022-09-05T08:24:25.448Z,22.86
2022-09-05T08:27:31.516Z,23.02
2022-09-05T08:30:24.640Z,23.14
2022-09-05T08:33:11.058Z,23.25
2022-09-05T08:35:45.785Z,23.27
2022-09-05T08:38:15.728Z,23.40
2022-09-05T08:40:53.184Z,23.44
2022-09-05T08:46:35.828Z,23.55
2022-09-05T08:46:53.323Z,23.66
2022-09-05T08:49:49.624Z,23.81
2022-09-05T08:52:40.613Z,23.94
2022-09-05T08:55:25.794Z,24.07
2022-09-05T08:58:21.305Z,24.18
2022-09-05T09:01:06.823Z,24.27
2022-09-05T09:04:39.977Z,24.44
2022-09-05T09:07:50.893Z,24.60
2022-09-05T09:10:39.514Z,24.70
2022-09-05T09:13:28.055Z,24.58
2022-09-05T09:16:06.759Z,24.74
2022-09-05T09:18:53.824Z,24.64
2022-09-05T09:21:31.915Z,24.78
2022-09-05T09:24:07.632Z,24.71
2022-09-05T09:26:43.002Z,24.97
2022-09-05T09:29:12.666Z,25.18
2022-09-05T09:31:56.635Z,25.33
2022-09-05T09:34:26.557Z,25.46
2022-09-05T09:37:08.805Z,25.53
2022-09-05T09:40:14.433Z,25.55
2022-09-05T09:43:07.306Z,25.52
2022-09-05T09:45:59.114Z,25.46
2022-09-05T09:49:03.745Z,25.45
2022-09-05T09:51:51.814Z,25.35
2022-09-05T09:54:49.805Z,25.33
2022-09-05T09:57:51.545Z,25.20
2022-09-05T10:00:21.644Z,25.20
2022-09-05T10:10:36.375Z,25.28
2022-09-05T10:10:36.454Z,25.29
2022-09-05T10:10:43.853Z,25.28
2022-09-05T10:12:31.998Z,25.31
2022-09-05T10:15:18.595Z,25.35
2022-09-05T10:18:10.687Z,25.35
2022-09-05T10:21:16.240Z,25.42
2022-09-05T10:24:20.848Z,25.35
2022-09-05T10:27:26.706Z,25.44
2022-09-05T10:30:08.153Z,25.44
2022-09-05T10:35:11.772Z,25.44
2022-09-05T10:35:40.870Z,25.41
2022-09-05T10:38:21.603Z,25.29
2022-09-05T10:41:19.798Z,25.51
2022-09-05T10:44:04.707Z,25.55
2022-09-05T10:47:10.308Z,25.68
2022-09-05T10:49:44.710Z,25.85
2022-09-05T10:52:18.655Z,25.95
2022-09-05T10:55:15.602Z,26.07
2022-09-05T10:57:54.616Z,26.30
2022-09-05T11:02:28.887Z,26.47
2022-09-05T11:13:26.894Z,25.87
2022-09-05T11:16:04.561Z,25.83
2022-09-05T11:18:56.435Z,25.82
2022-09-05T11:21:30.706Z,25.82
2022-09-05T11:24:44.978Z,25.77
2022-09-05T11:27:36.305Z,25.77
2022-09-05T11:30:41.194Z,25.83
2022-09-05T11:37:54.663Z,25.91
2022-09-05T11:40:02.008Z,25.83
2022-09-05T11:40:09.969Z,25.93
2022-09-05T11:42:42.084Z,25.78
2022-09-05T11:45:08.925Z,25.81
2022-09-05T11:47:54.245Z,25.76
2022-09-05T11:50:58.774Z,25.83
2022-09-05T11:53:46.794Z,25.93
2022-09-05T11:56:39.692Z,25.98
2022-09-05T11:59:32.763Z,25.84
2022-09-05T12:02:24.095Z,26.03
2022-09-05T12:05:48.701Z,26.09
2022-09-05T12:08:21.422Z,26.17
2022-09-05T12:11:31.644Z,26.15
2022-09-05T12:14:39.525Z,26.05
2022-09-05T12:17:17.208Z,26.23
2022-09-05T12:20:16.971Z,26.29
2022-09-05T12:22:54.090Z,26.38
2022-09-05T12:29:26.428Z,26.37
2022-09-05T12:32:41.777Z,26.39
2022-09-05T12:36:10.694Z,26.37
2022-09-05T12:40:56.977Z,26.15
2022-09-05T12:41:38.837Z,26.23
2022-09-05T12:42:08.417Z,26.35
2022-09-05T12:43:53.095Z,26.35
2022-09-05T12:46:27.685Z,26.46
2022-09-05T12:49:07.523Z,26.56
2022-09-05T12:51:46.992Z,26.59
2022-09-05T12:54:34.700Z,26.62
2022-09-05T12:59:34.827Z,26.68
2022-09-05T13:03:06.706Z,26.73
2022-09-05T13:03:28.361Z,26.69
2022-09-05T13:06:25.181Z,26.69
2022-09-05T13:09:00.996Z,26.65
2022-09-05T13:14:49.267Z,26.70
2022-09-05T13:14:53.961Z,26.75
2022-09-05T13:17:14.215Z,26.72
2022-09-05T13:19:47.657Z,26.72
2022-09-05T13:22:16.584Z,26.72
2022-09-05T13:24:50.725Z,26.73
2022-09-05T13:27:25.965Z,26.66
2022-09-05T13:30:54.842Z,26.57
2022-09-05T13:38:01.419Z,26.40
2022-09-05T13:38:20.787Z,26.55
2022-09-05T13:38:56.066Z,26.39
2022-09-05T13:41:30.777Z,26.24
2022-09-05T13:44:27.546Z,26.13
2022-09-05T13:47:29.768Z,26.10
2022-09-05T13:50:27.866Z,26.06
2022-09-05T13:53:00.805Z,26.06
2022-09-05T13:55:38.232Z,26.05
2022-09-05T13:58:16.986Z,26.03
2022-09-05T14:00:59.596Z,26.16
2022-09-05T14:03:46.771Z,26.24
2022-09-05T14:06:47.168Z,26.30
2022-09-05T14:09:38.951Z,26.55
2022-09-05T14:12:29.717Z,26.80
2022-09-05T14:15:13.475Z,26.94
2022-09-05T14:18:21.138Z,26.92
2022-09-05T14:21:16.435Z,26.92
2022-09-05T14:23:56.281Z,26.84
2022-09-05T14:26:47.455Z,26.86
2022-09-05T14:29:21.164Z,26.88
2022-09-05T14:37:50.191Z,27.20
2022-09-05T14:37:55.378Z,26.88
2022-09-05T14:38:14.475Z,27.54
2022-09-05T14:41:19.634Z,27.82
2022-09-05T14:43:58.685Z,27.88
2022-09-05T14:46:41.638Z,28.11
2022-09-05T14:49:18.298Z,28.77
2022-09-05T14:51:51.035Z,29.65
2022-09-05T15:02:43.607Z,31.77
2022-09-05T15:02:46.250Z,31.27
2022-09-05T15:03:03.847Z,32.14
2022-09-05T15:05:31.815Z,31.94
2022-09-05T15:08:08.365Z,31.20
2022-09-05T15:12:24.352Z,30.96
2022-09-05T15:14:04.155Z,30.47
2022-09-05T15:16:35.803Z,30.11
2022-09-05T15:19:03.246Z,29.78
2022-09-05T15:21:38.427Z,29.39
2022-09-05T15:24:25.074Z,29.06
2022-09-05T15:26:53.145Z,28.84
2022-09-05T15:29:29.274Z,28.58
2022-09-05T15:32:14.867Z,28.46
2022-09-05T15:34:41.858Z,28.33
2022-09-05T15:37:22.835Z,28.14
2022-09-05T15:40:07.618Z,28.08
2022-09-05T15:42:55.325Z,27.94
2022-09-05T15:45:36.405Z,27.84
2022-09-05T15:48:12.575Z,27.76
2022-09-05T15:50:46.244Z,27.55
2022-09-05T15:53:24.849Z,27.43
2022-09-05T15:55:59.868Z,27.22
2022-09-05T15:58:32.790Z,27.17
2022-09-05T16:01:49.881Z,27.01
2022-09-05T16:10:26.772Z,26.97
2022-09-05T16:10:40.814Z,26.79
2022-09-05T16:10:42.751Z,26.77
2022-09-05T16:12:42.671Z,26.72
2022-09-05T16:16:28.496Z,26.60
2022-09-05T16:23:21.114Z,26.45
2022-09-05T16:23:32.903Z,26.26
2022-09-05T16:24:04.864Z,26.10
2022-09-05T16:26:40.297Z,25.90
2022-09-05T16:29:13.444Z,25.91
2022-09-05T16:31:51.331Z,25.82
2022-09-05T16:34:31.236Z,25.70
2022-09-05T16:37:08.891Z,25.48
2022-09-05T16:39:42.882Z,25.46
2022-09-05T16:42:47.909Z,25.42
2022-09-05T16:45:33.093Z,25.36
2022-09-05T16:48:12.050Z,25.24
2022-09-05T16:51:00.234Z,25.18
2022-09-05T16:53:58.589Z,25.21
2022-09-05T16:56:30.253Z,25.13
2022-09-05T16:59:17.473Z,25.09
2022-09-05T17:02:07.247Z,25.00
2022-09-05T17:05:05.974Z,24.92
2022-09-05T17:07:42.056Z,24.84
2022-09-05T17:10:18.606Z,24.77
2022-09-05T17:12:46.754Z,24.69
2022-09-05T17:15:16.743Z,24.63
2022-09-05T17:18:20.826Z,24.57
2022-09-05T17:20:38.108Z,24.52
2022-09-05T17:29:20.447Z,24.46
2022-09-05T17:29:24.588Z,24.37
2022-09-05T17:29:26.024Z,24.40
2022-09-05T17:31:55.134Z,24.30
2022-09-05T17:34:49.893Z,24.22
2022-09-05T17:38:11.426Z,24.17
2022-09-05T17:41:00.564Z,24.07
2022-09-05T17:43:32.372Z,23.99
2022-09-05T17:46:11.745Z,23.93
2022-09-05T17:49:03.311Z,23.84
2022-09-05T17:51:51.739Z,23.77
2022-09-05T17:54:33.812Z,23.70
2022-09-05T17:57:26.882Z,23.60
2022-09-05T18:00:02.272Z,23.53
2022-09-05T18:02:56.384Z,23.47
2022-09-05T18:05:54.897Z,23.40
2022-09-05T18:08:52.651Z,23.33
2022-09-05T18:11:25.843Z,23.26
2022-09-05T18:14:03.476Z,23.20
2022-09-05T18:16:43.723Z,23.13
2022-09-05T18:19:37.220Z,23.10
2022-09-05T18:22:20.154Z,23.02
2022-09-05T18:24:57.765Z,22.97
2022-09-05T18:28:04.645Z,22.94
2022-09-05T18:33:53.489Z,22.81
2022-09-05T18:36:32.434Z,22.77
2022-09-05T18:39:24.795Z,22.71
2022-09-05T18:42:25.591Z,22.68
2022-09-05T18:45:00.000Z,22.63
2022-09-05T18:47:51.054Z,22.60
2022-09-05T18:50:27.964Z,22.54
2022-09-05T18:53:09.135Z,22.46
2022-09-05T18:56:11.093Z,22.44
2022-09-05T18:58:34.538Z,22.45
2022-09-05T19:01:28.541Z,22.47
2022-09-05T19:04:01.968Z,22.42
2022-09-05T19:06:35.862Z,22.44
2022-09-05T19:09:09.772Z,22.45
2022-09-05T19:11:53.942Z,22.41
2022-09-05T19:14:55.356Z,22.39
2022-09-05T19:17:34.352Z,22.27
2022-09-05T19:20:30.764Z,22.33
2022-09-05T19:23:11.031Z,22.32
2022-09-05T19:25:45.104Z,22.30
2022-09-05T19:35:34.589Z,22.29
2022-09-05T19:36:52.792Z,22.29
2022-09-05T19:37:09.435Z,22.29
2022-09-05T19:37:28.865Z,22.28
2022-09-05T19:43:07.422Z,22.30
2022-09-05T19:47:41.502Z,22.33
2022-09-05T19:47:46.682Z,22.31
2022-09-05T19:49:08.519Z,22.31
2022-09-05T19:51:37.163Z,22.31
2022-09-05T19:54:05.999Z,22.34
2022-09-05T19:56:43.185Z,22.33
2022-09-05T19:59:22.664Z,22.33
2022-09-05T20:01:52.084Z,22.33
2022-09-05T20:04:20.865Z,22.30
2022-09-05T20:06:49.961Z,22.24
2022-09-05T20:09:21.465Z,22.24
2022-09-05T20:11:58.228Z,22.23
2022-09-05T20:14:31.220Z,22.19
2022-09-05T20:17:17.266Z,22.19
2022-09-05T20:19:45.074Z,22.18
2022-09-05T20:22:47.086Z,22.17
2022-09-05T20:25:35.317Z,22.17
2022-09-05T20:28:12.505Z,22.15
2022-09-05T20:30:49.477Z,22.18
2022-09-05T20:33:20.019Z,22.17
2022-09-05T20:39:03.897Z,22.18
2022-09-05T20:43:15.705Z,22.19
2022-09-05T20:43:31.553Z,22.17
2022-09-05T20:44:25.142Z,22.17
2022-09-05T20:50:48.395Z,22.17
2022-09-05T20:54:05.910Z,22.19
2022-09-05T20:54:19.758Z,22.17
2022-09-05T20:55:43.171Z,22.13
2022-09-05T20:58:24.630Z,22.14
2022-09-05T21:01:20.057Z,22.16
2022-09-05T21:04:05.140Z,22.13
2022-09-05T21:06:35.015Z,22.16
2022-09-05T21:09:24.683Z,22.10
2022-09-05T21:11:54.503Z,22.05
2022-09-05T21:14:23.796Z,22.05
2022-09-05T21:17:14.977Z,22.03
2022-09-05T21:19:54.194Z,22.02
2022-09-05T21:22:21.435Z,22.03
2022-09-05T21:25:16.485Z,21.98
2022-09-05T21:27:58.895Z,22.00
2022-09-05T21:30:32.305Z,21.97
2022-09-05T21:33:29.484Z,21.96
2022-09-05T21:36:04.408Z,21.94
2022-09-05T21:38:40.855Z,21.84
2022-09-05T21:41:08.407Z,21.85
2022-09-05T21:47:42.448Z,21.80
2022-09-05T21:47:42.804Z,21.81
2022-09-05T21:49:18.899Z,21.82
2022-09-05T21:51:53.435Z,21.83
2022-09-05T21:59:11.657Z,21.85
2022-09-05T21:59:26.028Z,21.82
2022-09-05T22:00:14.635Z,21.83
2022-09-05T22:02:49.671Z,21.84
2022-09-05T22:05:17.365Z,21.82
2022-09-05T22:07:44.593Z,21.81
2022-09-05T22:10:12.255Z,21.75
2022-09-05T22:12:39.502Z,21.72
2022-09-05T22:15:28.949Z,21.71
2022-09-05T22:18:14.750Z,21.68
2022-09-05T22:20:53.467Z,21.66
2022-09-05T22:23:37.665Z,21.64
2022-09-05T22:26:07.885Z,21.62
2022-09-05T22:28:38.719Z,21.58
2022-09-05T22:31:07.707Z,21.58
2022-09-05T22:33:35.626Z,21.53
2022-09-05T22:36:02.965Z,21.52
2022-09-05T22:38:30.236Z,21.47
2022-09-05T22:40:57.805Z,21.45
2022-09-05T22:43:25.506Z,21.44
2022-09-05T22:45:56.370Z,21.41
2022-09-05T22:48:24.155Z,21.36
2022-09-05T22:50:51.226Z,21.31
2022-09-05T22:53:18.346Z,21.27
2022-09-05T22:55:45.432Z,21.19
2022-09-05T22:58:14.524Z,21.11
2022-09-05T23:00:41.979Z,21.06
2022-09-05T23:03:09.277Z,21.04
2022-09-05T23:05:36.386Z,21.04
2022-09-05T23:08:06.025Z,21.01
2022-09-05T23:10:33.511Z,20.99
2022-09-05T23:13:07.117Z,20.97
2022-09-05T23:15:35.637Z,20.96
2022-09-05T23:18:04.120Z,20.95
2022-09-05T23:20:32.587Z,20.92
2022-09-05T23:23:04.419Z,20.92
2022-09-05T23:25:32.209Z,20.87
2022-09-05T23:27:59.180Z,20.82
2022-09-05T23:30:26.169Z,20.80
2022-09-05T23:32:53.282Z,20.79
2022-09-05T23:35:20.660Z,20.73
2022-09-05T23:37:48.867Z,20.63
2022-09-05T23:40:18.048Z,20.65
2022-09-05T23:42:53.270Z,20.62
2022-09-05T23:45:20.539Z,20.60
2022-09-05T23:47:47.899Z,20.56
2022-09-05T23:50:15.727Z,20.49
2022-09-05T23:52:44.460Z,20.47
2022-09-05T23:55:13.639Z,20.45
2022-09-05T23:57:41.178Z,20.41
